sensor_id;sensor_type;location;lat;lon;timestamp;pressure;altitude;pressure_sealevel;temperature;humidity
47280;BME280;34064;44.942;0.008;2023-02-13T00:00:35;100670.94;;;3.97;46.66
47280;BME280;34064;44.942;0.008;2023-02-13T00:03:03;100670.16;;;3.94;46.64
47280;BME280;34064;44.942;0.008;2023-02-13T00:05:31;100680.75;;;3.87;47.13
47280;BME280;34064;44.942;0.008;2023-02-13T00:07:58;100679.97;;;3.84;47.19
47280;BME280;34064;44.942;0.008;2023-02-13T00:10:26;100674.78;;;3.81;46.50
47280;BME280;34064;44.942;0.008;2023-02-13T00:12:54;100679.19;;;3.79;46.67
47280;BME280;34064;44.942;0.008;2023-02-13T00:15:21;100674.91;;;3.73;47.28
47280;BME280;34064;44.942;0.008;2023-02-13T00:17:49;100675.84;;;3.69;47.11
47280;BME280;34064;44.942;0.008;2023-02-13T00:20:16;100671.63;;;3.60;46.95
47280;BME280;34064;44.942;0.008;2023-02-13T00:22:44;100676.16;;;3.50;47.25
47280;BME280;34064;44.942;0.008;2023-02-13T00:25:11;100680.63;;;3.47;47.35
47280;BME280;34064;44.942;0.008;2023-02-13T00:27:39;100685.91;;;3.45;47.17
47280;BME280;34064;44.942;0.008;2023-02-13T00:30:07;100680.69;;;3.43;47.03
47280;BME280;34064;44.942;0.008;2023-02-13T00:32:34;100681.53;;;3.44;47.27
47280;BME280;34064;44.942;0.008;2023-02-13T00:35:02;100686.81;;;3.44;47.36
47280;BME280;34064;44.942;0.008;2023-02-13T00:37:29;100687.69;;;3.45;47.68
47280;BME280;34064;44.942;0.008;2023-02-13T00:39:57;100687.69;;;3.45;47.29
47280;BME280;34064;44.942;0.008;2023-02-13T00:42:24;100684.13;;;3.46;46.72
47280;BME280;34064;44.942;0.008;2023-02-13T00:44:53;100679.78;;;3.46;47.25
47280;BME280;34064;44.942;0.008;2023-02-13T00:47:20;100685.88;;;3.47;47.49
47280;BME280;34064;44.942;0.008;2023-02-13T00:49:48;100683.25;;;3.47;47.03
47280;BME280;34064;44.942;0.008;2023-02-13T00:52:15;100684.22;;;3.42;47.41
47280;BME280;34064;44.942;0.008;2023-02-13T00:54:41;100686.88;;;3.39;47.35
47280;BME280;34064;44.942;0.008;2023-02-13T00:57:07;100690.53;;;3.31;47.88
47280;BME280;34064;44.942;0.008;2023-02-13T00:59:34;100693.22;;;3.26;47.72
47280;BME280;34064;44.942;0.008;2023-02-13T01:02:02;100695.03;;;3.24;47.76
47280;BME280;34064;44.942;0.008;2023-02-13T01:04:29;100695.03;;;3.24;47.33
47280;BME280;34064;44.942;0.008;2023-02-13T01:06:56;100692.38;;;3.25;47.63
47280;BME280;34064;44.942;0.008;2023-02-13T01:09:24;100702.03;;;3.25;47.54
47280;BME280;34064;44.942;0.008;2023-02-13T01:11:50;100698.47;;;3.26;47.58
47280;BME280;34064;44.942;0.008;2023-02-13T01:14:18;100695.03;;;3.24;48.26
47280;BME280;34064;44.942;0.008;2023-02-13T01:16:45;100696.78;;;3.23;47.99
47280;BME280;34064;44.942;0.008;2023-02-13T01:19:13;100705.56;;;3.21;48.21
47280;BME280;34064;44.942;0.008;2023-02-13T01:21:42;100701.25;;;3.18;48.20
47280;BME280;34064;44.942;0.008;2023-02-13T01:24:10;100703.06;;;3.15;47.85
47280;BME280;34064;44.942;0.008;2023-02-13T01:26:38;100706.53;;;3.15;47.78
47280;BME280;34064;44.942;0.008;2023-02-13T01:29:05;100717.03;;;3.15;48.39
47280;BME280;34064;44.942;0.008;2023-02-13T01:31:33;100714.41;;;3.15;48.10
47280;BME280;34064;44.942;0.008;2023-02-13T01:34:00;100711.78;;;3.15;47.47
47280;BME280;34064;44.942;0.008;2023-02-13T01:36:28;100725.78;;;3.17;47.25
47280;BME280;34064;44.942;0.008;2023-02-13T01:38:58;100726.63;;;3.18;47.40
47280;BME280;34064;44.942;0.008;2023-02-13T01:41:26;100729.25;;;3.19;47.50
47280;BME280;34064;44.942;0.008;2023-02-13T01:43:56;100734.47;;;3.21;46.98
47280;BME280;34064;44.942;0.008;2023-02-13T01:46:33;100733.72;;;3.12;48.30
47280;BME280;34064;44.942;0.008;2023-02-13T01:49:08;100727.66;;;3.09;47.83
47280;BME280;34064;44.942;0.008;2023-02-13T01:51:38;100738.25;;;3.01;47.88
47280;BME280;34064;44.942;0.008;2023-02-13T01:54:19;100739.25;;;2.94;48.11
47280;BME280;34064;44.942;0.008;2023-02-13T01:56:50;100745.41;;;2.91;47.74
47280;BME280;34064;44.942;0.008;2023-02-13T01:59:26;100740.16;;;2.91;47.53
47280;BME280;34064;44.942;0.008;2023-02-13T02:01:54;100735.72;;;2.93;47.56
47280;BME280;34064;44.942;0.008;2023-02-13T02:04:26;100741.84;;;2.95;47.53
47280;BME280;34064;44.942;0.008;2023-02-13T02:06:57;100734.81;;;2.97;47.48
47280;BME280;34064;44.942;0.008;2023-02-13T02:09:27;100728.69;;;2.97;47.46
47280;BME280;34064;44.942;0.008;2023-02-13T02:12:17;100735.75;;;2.92;47.98
47280;BME280;34064;44.942;0.008;2023-02-13T02:14:47;100733.19;;;2.87;48.26
47280;BME280;34064;44.942;0.008;2023-02-13T02:17:14;100734.97;;;2.87;48.30
47280;BME280;34064;44.942;0.008;2023-02-13T02:19:54;100735.03;;;2.80;48.33
47280;BME280;34064;44.942;0.008;2023-02-13T02:22:41;100737.72;;;2.76;48.16
47280;BME280;34064;44.942;0.008;2023-02-13T02:44:28;100755.06;;;2.14;49.73
47280;BME280;34064;44.942;0.008;2023-02-13T03:01:07;100756.13;;;1.98;49.47
47280;BME280;34064;44.942;0.008;2023-02-13T03:03:55;100755.22;;;2.00;49.26
47280;BME280;34064;44.942;0.008;2023-02-13T03:06:55;100749.09;;;2.03;49.43
47280;BME280;34064;44.942;0.008;2023-02-13T03:09:30;100751.66;;;2.08;49.20
47280;BME280;34064;44.942;0.008;2023-02-13T03:12:20;100749.03;;;2.09;49.39
47280;BME280;34064;44.942;0.008;2023-02-13T03:15:07;100749.94;;;2.07;49.48
47280;BME280;34064;44.942;0.008;2023-02-13T03:17:35;100746.44;;;2.05;49.44
47280;BME280;34064;44.942;0.008;2023-02-13T03:20:39;100746.47;;;2.01;49.64
47280;BME280;34064;44.942;0.008;2023-02-13T03:24:03;100747.34;;;2.02;49.63
47280;BME280;34064;44.942;0.008;2023-02-13T03:26:48;100741.22;;;2.05;49.68
47280;BME280;34064;44.942;0.008;2023-02-13T03:35:19;100739.44;;;2.07;50.46
47280;BME280;34064;44.942;0.008;2023-02-13T03:38:14;100745.63;;;2.01;50.18
47280;BME280;34064;44.942;0.008;2023-02-13T03:40:49;100747.41;;;1.97;49.84
47280;BME280;34064;44.942;0.008;2023-02-13T03:46:30;100748.28;;;1.95;49.90
47280;BME280;34064;44.942;0.008;2023-02-13T03:49:00;100756.19;;;1.92;50.16
47280;BME280;34064;44.942;0.008;2023-02-13T03:51:52;100749.22;;;1.91;49.70
47280;BME280;34064;44.942;0.008;2023-02-13T03:54:42;100758.81;;;1.90;49.70
47280;BME280;34064;44.942;0.008;2023-02-13T03:57:31;100751.88;;;1.84;50.74
47280;BME280;34064;44.942;0.008;2023-02-13T04:00:18;100761.47;;;1.89;50.00
47280;BME280;34064;44.942;0.008;2023-02-13T04:03:26;100757.97;;;1.86;50.16
47280;BME280;34064;44.942;0.008;2023-02-13T04:06:10;100759.72;;;1.84;50.66
47280;BME280;34064;44.942;0.008;2023-02-13T04:08:38;100761.53;;;1.82;50.12
47280;BME280;34064;44.942;0.008;2023-02-13T04:13:49;100763.34;;;1.74;50.67
47280;BME280;34064;44.942;0.008;2023-02-13T04:16:43;100756.38;;;1.73;50.29
47280;BME280;34064;44.942;0.008;2023-02-13T04:19:09;100745.00;;;1.74;50.28
47280;BME280;34064;44.942;0.008;2023-02-13T04:21:38;100749.31;;;1.78;49.96
47280;BME280;34064;44.942;0.008;2023-02-13T04:24:08;100750.19;;;1.77;50.67
47280;BME280;34064;44.942;0.008;2023-02-13T04:26:40;100753.75;;;1.70;50.66
47280;BME280;34064;44.942;0.008;2023-02-13T04:29:07;100763.44;;;1.62;50.62
47280;BME280;34064;44.942;0.008;2023-02-13T04:31:34;100765.22;;;1.56;50.70
47280;BME280;34064;44.942;0.008;2023-02-13T04:34:00;100775.75;;;1.50;50.58
47280;BME280;34064;44.942;0.008;2023-02-13T04:36:27;100780.13;;;1.48;50.58
47280;BME280;34064;44.942;0.008;2023-02-13T04:38:53;100779.25;;;1.49;50.93
47280;BME280;34064;44.942;0.008;2023-02-13T04:41:19;100784.47;;;1.52;50.71
47280;BME280;34064;44.942;0.008;2023-02-13T04:43:46;100787.91;;;1.58;50.43
47280;BME280;34064;44.942;0.008;2023-02-13T04:46:12;100779.16;;;1.62;50.62
47280;BME280;34064;44.942;0.008;2023-02-13T04:48:38;100779.16;;;1.65;50.84
47280;BME280;34064;44.942;0.008;2023-02-13T04:51:05;100779.09;;;1.68;50.83
47280;BME280;34064;44.942;0.008;2023-02-13T04:53:31;100785.19;;;1.71;50.67
47280;BME280;34064;44.942;0.008;2023-02-13T04:55:58;100787.00;;;1.66;51.21
47280;BME280;34064;44.942;0.008;2023-02-13T04:58:24;100795.78;;;1.59;51.24
47280;BME280;34064;44.942;0.008;2023-02-13T05:00:50;100792.34;;;1.52;50.52
47280;BME280;34064;44.942;0.008;2023-02-13T05:03:17;100795.84;;;1.50;51.01
47280;BME280;34064;44.942;0.008;2023-02-13T05:05:43;100794.09;;;1.47;51.63
47280;BME280;34064;44.942;0.008;2023-02-13T05:08:11;100794.97;;;1.49;51.26
47280;BME280;34064;44.942;0.008;2023-02-13T05:10:37;100798.47;;;1.51;50.78
47280;BME280;34064;44.942;0.008;2023-02-13T05:13:03;100794.06;;;1.52;51.10
47280;BME280;34064;44.942;0.008;2023-02-13T05:15:30;100796.72;;;1.50;51.39
47280;BME280;34064;44.942;0.008;2023-02-13T05:17:56;100794.97;;;1.52;50.79
47280;BME280;34064;44.942;0.008;2023-02-13T05:20:24;100789.72;;;1.52;51.03
47280;BME280;34064;44.942;0.008;2023-02-13T05:22:52;100798.47;;;1.48;51.01
47280;BME280;34064;44.942;0.008;2023-02-13T05:25:39;100794.97;;;1.49;50.98
47280;BME280;34064;44.942;0.008;2023-02-13T05:28:08;100796.78;;;1.44;51.32
47280;BME280;34064;44.942;0.008;2023-02-13T05:30:55;100807.25;;;1.38;51.48
47280;BME280;34064;44.942;0.008;2023-02-13T05:33:23;100807.25;;;1.38;50.90
47280;BME280;34064;44.942;0.008;2023-02-13T05:35:50;100804.66;;;1.39;51.16
47280;BME280;34064;44.942;0.008;2023-02-13T05:38:18;100803.75;;;1.42;51.20
47280;BME280;34064;44.942;0.008;2023-02-13T05:40:45;100797.63;;;1.45;51.20
47280;BME280;34064;44.942;0.008;2023-02-13T05:43:13;100797.63;;;1.48;51.47
47280;BME280;34064;44.942;0.008;2023-02-13T05:45:40;100801.94;;;1.50;51.37
47280;BME280;34064;44.942;0.008;2023-02-13T05:48:08;100802.84;;;1.51;51.23
47280;BME280;34064;44.942;0.008;2023-02-13T05:50:35;100794.97;;;1.49;51.43
47280;BME280;34064;44.942;0.008;2023-02-13T05:53:03;100800.25;;;1.46;51.94
47280;BME280;34064;44.942;0.008;2023-02-13T05:55:30;100795.88;;;1.47;51.78
47280;BME280;34064;44.942;0.008;2023-02-13T05:57:57;100805.50;;;1.43;51.66
47280;BME280;34064;44.942;0.008;2023-02-13T06:00:25;100809.06;;;1.36;51.74
47280;BME280;34064;44.942;0.008;2023-02-13T06:02:52;100806.44;;;1.34;51.97
47280;BME280;34064;44.942;0.008;2023-02-13T06:05:20;100806.44;;;1.34;51.83
47280;BME280;34064;44.942;0.008;2023-02-13T06:07:47;100802.94;;;1.34;52.09
47280;BME280;34064;44.942;0.008;2023-02-13T06:10:15;100804.66;;;1.36;51.96
47280;BME280;34064;44.942;0.008;2023-02-13T06:12:43;100802.91;;;1.40;51.34
47280;BME280;34064;44.942;0.008;2023-02-13T06:15:11;100803.75;;;1.42;51.27
47280;BME280;34064;44.942;0.008;2023-02-13T06:17:38;100800.25;;;1.43;52.06
47280;BME280;34064;44.942;0.008;2023-02-13T06:20:06;100794.13;;;1.43;51.59
47280;BME280;34064;44.942;0.008;2023-02-13T06:22:34;100802.94;;;1.37;52.04
47280;BME280;34064;44.942;0.008;2023-02-13T06:25:02;100803.84;;;1.30;52.12
47280;BME280;34064;44.942;0.008;2023-02-13T06:27:30;100807.34;;;1.27;51.70
47280;BME280;34064;44.942;0.008;2023-02-13T06:29:57;100804.75;;;1.24;52.51
47280;BME280;34064;44.942;0.008;2023-02-13T06:32:25;100803.00;;;1.23;51.95
47280;BME280;34064;44.942;0.008;2023-02-13T06:34:52;100804.75;;;1.22;52.18
47280;BME280;34064;44.942;0.008;2023-02-13T06:37:20;100807.38;;;1.19;52.45
47280;BME280;34064;44.942;0.008;2023-02-13T06:39:48;100809.13;;;1.20;52.96
47280;BME280;34064;44.942;0.008;2023-02-13T06:42:15;100812.63;;;1.22;52.51
47280;BME280;34064;44.942;0.008;2023-02-13T06:44:44;100819.56;;;1.25;52.45
47280;BME280;34064;44.942;0.008;2023-02-13T06:47:12;100811.72;;;1.25;52.59
47280;BME280;34064;44.942;0.008;2023-02-13T06:49:39;100816.06;;;1.26;52.62
47280;BME280;34064;44.942;0.008;2023-02-13T06:52:06;100816.09;;;1.24;52.30
47280;BME280;34064;44.942;0.008;2023-02-13T06:54:33;100821.34;;;1.24;52.33
47280;BME280;34064;44.942;0.008;2023-02-13T06:56:59;100823.97;;;1.24;52.58
47280;BME280;34064;44.942;0.008;2023-02-13T06:59:26;100820.41;;;1.29;52.25
47280;BME280;34064;44.942;0.008;2023-02-13T07:01:53;100826.53;;;1.31;52.11
47280;BME280;34064;44.942;0.008;2023-02-13T07:04:19;100824.78;;;1.30;53.09
47280;BME280;34064;44.942;0.008;2023-02-13T07:06:46;100832.63;;;1.30;52.84
47280;BME280;34064;44.942;0.008;2023-02-13T07:09:13;100835.25;;;1.30;53.03
47280;BME280;34064;44.942;0.008;2023-02-13T07:11:40;100837.84;;;1.34;52.98
47280;BME280;34064;44.942;0.008;2023-02-13T07:14:07;100834.38;;;1.34;52.99
47280;BME280;34064;44.942;0.008;2023-02-13T07:16:34;100835.19;;;1.39;52.99
47280;BME280;34064;44.942;0.008;2023-02-13T07:19:00;100829.97;;;1.42;52.99
47280;BME280;34064;44.942;0.008;2023-02-13T07:21:26;100837.81;;;1.45;52.73
47280;BME280;34064;44.942;0.008;2023-02-13T07:23:53;100835.13;;;1.48;53.06
47280;BME280;34064;44.942;0.008;2023-02-13T07:26:20;100829.88;;;1.51;52.72
47280;BME280;34064;44.942;0.008;2023-02-13T07:28:47;100831.63;;;1.55;52.76
47280;BME280;34064;44.942;0.008;2023-02-13T07:31:13;100838.56;;;1.56;53.43
47280;BME280;34064;44.942;0.008;2023-02-13T07:33:39;100842.06;;;1.60;53.05
47280;BME280;34064;44.942;0.008;2023-02-13T07:36:06;100828.94;;;1.65;52.96
47280;BME280;34064;44.942;0.008;2023-02-13T07:38:33;100828.03;;;1.66;53.41
47280;BME280;34064;44.942;0.008;2023-02-13T07:41:00;100830.66;;;1.67;53.18
47280;BME280;34064;44.942;0.008;2023-02-13T07:43:27;100826.25;;;1.71;53.21
47280;BME280;34064;44.942;0.008;2023-02-13T07:45:57;100834.09;;;1.73;53.37
47280;BME280;34064;44.942;0.008;2023-02-13T07:48:23;100836.72;;;1.74;53.06
47280;BME280;34064;44.942;0.008;2023-02-13T07:50:53;100825.34;;;1.74;53.34
47280;BME280;34064;44.942;0.008;2023-02-13T07:53:19;100831.44;;;1.77;52.95
47280;BME280;34064;44.942;0.008;2023-02-13T07:55:46;100820.06;;;1.81;53.95
47280;BME280;34064;44.942;0.008;2023-02-13T07:58:12;100821.75;;;1.89;53.66
47280;BME280;34064;44.942;0.008;2023-02-13T08:00:38;100822.56;;;1.95;53.33
47280;BME280;34064;44.942;0.008;2023-02-13T08:03:05;100826.00;;;2.02;53.78
47280;BME280;34064;44.942;0.008;2023-02-13T08:05:32;100822.44;;;2.09;53.40
47280;BME280;34064;44.942;0.008;2023-02-13T08:07:58;100819.75;;;2.17;53.50
47280;BME280;34064;44.942;0.008;2023-02-13T08:10:25;100822.28;;;2.25;53.28
47280;BME280;34064;44.942;0.008;2023-02-13T08:13:12;100820.47;;;2.31;53.37
47280;BME280;34064;44.942;0.008;2023-02-13T08:15:40;100814.28;;;2.39;52.94
47280;BME280;34064;44.942;0.008;2023-02-13T08:18:06;100809.84;;;2.45;53.24
47280;BME280;34064;44.942;0.008;2023-02-13T08:20:33;100818.50;;;2.52;53.52
47280;BME280;34064;44.942;0.008;2023-02-13T08:23:08;100820.19;;;2.58;53.75
47280;BME280;34064;44.942;0.008;2023-02-13T08:25:35;100814.00;;;2.63;54.44
47280;BME280;34064;44.942;0.008;2023-02-13T08:28:02;100813.00;;;2.75;53.33
47280;BME280;34064;44.942;0.008;2023-02-13T08:30:29;100811.13;;;2.84;53.76
47280;BME280;34064;44.942;0.008;2023-02-13T08:32:55;100804.84;;;2.95;54.19
47280;BME280;34064;44.942;0.008;2023-02-13T08:35:22;100806.47;;;3.06;55.07
47280;BME280;34064;44.942;0.008;2023-02-13T08:37:52;100799.28;;;3.20;55.92
47280;BME280;34064;44.942;0.008;2023-02-13T08:40:19;100792.94;;;3.35;55.50
47280;BME280;34064;44.942;0.008;2023-02-13T08:42:45;100781.19;;;3.58;55.68
47280;BME280;34064;44.942;0.008;2023-02-13T08:45:12;100776.47;;;3.79;56.60
47280;BME280;34064;44.942;0.008;2023-02-13T08:47:38;100761.97;;;4.04;56.90
47280;BME280;34064;44.942;0.008;2023-02-13T08:50:05;100754.63;;;4.22;57.22
47280;BME280;34064;44.942;0.008;2023-02-13T08:52:32;100756.00;;;4.43;57.16
47280;BME280;34064;44.942;0.008;2023-02-13T08:54:58;100743.31;;;4.62;58.13
47280;BME280;34064;44.942;0.008;2023-02-13T08:57:25;100742.06;;;4.79;57.03
47280;BME280;34064;44.942;0.008;2023-02-13T08:59:51;100730.31;;;4.95;57.25
47280;BME280;34064;44.942;0.008;2023-02-13T09:02:17;100728.97;;;5.17;58.16
47280;BME280;34064;44.942;0.008;2023-02-13T09:04:44;100720.56;;;5.37;58.53
47280;BME280;34064;44.942;0.008;2023-02-13T09:07:10;100710.22;;;5.63;58.77
47280;BME280;34064;44.942;0.008;2023-02-13T09:09:37;100699.94;;;5.87;58.60
47280;BME280;34064;44.942;0.008;2023-02-13T09:12:03;100692.41;;;6.08;58.71
47280;BME280;34064;44.942;0.008;2023-02-13T09:14:30;100691.88;;;6.27;58.75
47280;BME280;34064;44.942;0.008;2023-02-13T09:16:56;100685.09;;;6.48;58.73
47280;BME280;34064;44.942;0.008;2023-02-13T09:19:23;100678.28;;;6.69;58.84
47280;BME280;34064;44.942;0.008;2023-02-13T09:21:49;100660.75;;;6.95;59.12
47280;BME280;34064;44.942;0.008;2023-02-13T09:24:15;100653.13;;;7.14;59.29
47280;BME280;34064;44.942;0.008;2023-02-13T09:26:42;100655.22;;;7.31;58.75
47280;BME280;34064;44.942;0.008;2023-02-13T09:29:08;100642.97;;;7.54;58.91
47280;BME280;34064;44.942;0.008;2023-02-13T09:31:34;100645.09;;;7.69;58.33
47280;BME280;34064;44.942;0.008;2023-02-13T09:34:01;100637.41;;;7.87;58.69
47280;BME280;34064;44.942;0.008;2023-02-13T09:36:27;100632.53;;;8.00;58.54
47280;BME280;34064;44.942;0.008;2023-02-13T09:38:55;100628.22;;;8.21;58.56
47280;BME280;34064;44.942;0.008;2023-02-13T09:41:38;100621.53;;;8.34;58.44
47280;BME280;34064;44.942;0.008;2023-02-13T09:44:49;100614.50;;;8.57;58.15
47280;BME280;34064;44.942;0.008;2023-02-13T09:47:21;100598.56;;;8.81;57.93
47280;BME280;34064;44.942;0.008;2023-02-13T09:50:24;100602.84;;;9.05;58.10
47280;BME280;34064;44.942;0.008;2023-02-13T09:52:54;100592.91;;;9.31;58.01
47280;BME280;34064;44.942;0.008;2023-02-13T09:55:46;100583.63;;;9.42;57.61
47280;BME280;34064;44.942;0.008;2023-02-13T10:01:03;100582.16;;;9.76;57.20
47280;BME280;34064;44.942;0.008;2023-02-13T10:03:51;100577.03;;;9.92;56.98
47280;BME280;34064;44.942;0.008;2023-02-13T10:06:34;100577.16;;;10.08;56.60
47280;BME280;34064;44.942;0.008;2023-02-13T10:09:16;100570.56;;;10.17;56.42
47280;BME280;34064;44.942;0.008;2023-02-13T10:17:16;100562.94;;;10.66;55.96
47280;BME280;34064;44.942;0.008;2023-02-13T10:19:48;100551.69;;;10.79;55.75
47280;BME280;34064;44.942;0.008;2023-02-13T10:25:11;100538.66;;;11.09;55.00
47280;BME280;34064;44.942;0.008;2023-02-13T10:28:05;100540.84;;;11.18;54.74
47280;BME280;34064;44.942;0.008;2023-02-13T10:30:55;100535.81;;;11.30;54.62
47280;BME280;34064;44.942;0.008;2023-02-13T10:36:35;100531.78;;;11.56;53.38
47280;BME280;34064;44.942;0.008;2023-02-13T10:42:34;100527.19;;;11.76;52.54
47280;BME280;34064;44.942;0.008;2023-02-13T10:45:00;100527.53;;;11.85;52.41
47280;BME280;34064;44.942;0.008;2023-02-13T10:56:35;100504.19;;;12.55;50.96
47280;BME280;34064;44.942;0.008;2023-02-13T10:58:58;100508.50;;;12.57;50.52
47280;BME280;34064;44.942;0.008;2023-02-13T11:04:18;100492.13;;;12.79;50.31
47280;BME280;34064;44.942;0.008;2023-02-13T11:09:23;100485.31;;;13.04;48.85
47280;BME280;34064;44.942;0.008;2023-02-13T11:11:50;100478.53;;;13.13;48.32
47280;BME280;34064;44.942;0.008;2023-02-13T11:19:29;100461.88;;;13.38;47.41
47280;BME280;34064;44.942;0.008;2023-02-13T11:22:10;100455.06;;;13.49;46.46
47280;BME280;34064;44.942;0.008;2023-02-13T11:24:40;100458.03;;;13.59;46.00
47280;BME280;34064;44.942;0.008;2023-02-13T11:27:09;100451.88;;;13.71;46.36
47280;BME280;34064;44.942;0.008;2023-02-13T11:29:54;100437.00;;;13.81;45.76
47280;BME280;34064;44.942;0.008;2023-02-13T11:32:29;100442.91;;;13.86;45.34
47280;BME280;34064;44.942;0.008;2023-02-13T11:34:57;100436.31;;;13.92;45.20
47280;BME280;34064;44.942;0.008;2023-02-13T11:37:31;100435.50;;;14.04;45.38
47280;BME280;34064;44.942;0.008;2023-02-13T11:39:59;100427.34;;;14.20;44.59
47280;BME280;34064;44.942;0.008;2023-02-13T11:42:47;100410.28;;;14.36;43.13
47280;BME280;34064;44.942;0.008;2023-02-13T11:45:23;100409.25;;;14.39;43.14
47280;BME280;34064;44.942;0.008;2023-02-13T11:47:52;100412.44;;;14.44;43.01
47280;BME280;34064;44.942;0.008;2023-02-13T11:50:30;100393.03;;;14.55;42.50
47280;BME280;34064;44.942;0.008;2023-02-13T11:55:34;100390.72;;;14.76;42.13
47280;BME280;34064;44.942;0.008;2023-02-13T12:00:42;100378.94;;;14.91;42.52
47280;BME280;34064;44.942;0.008;2023-02-13T12:03:30;100371.03;;;15.03;41.77
47280;BME280;34064;44.942;0.008;2023-02-13T12:06:12;100365.53;;;15.17;40.92
47280;BME280;34064;44.942;0.008;2023-02-13T12:08:40;100357.72;;;15.27;39.88
47280;BME280;34064;44.942;0.008;2023-02-13T12:11:28;100352.44;;;15.38;39.76
47280;BME280;34064;44.942;0.008;2023-02-13T12:13:59;100351.53;;;15.51;38.97
47280;BME280;34064;44.942;0.008;2023-02-13T12:16:30;100348.66;;;15.54;39.34
47280;BME280;34064;44.942;0.008;2023-02-13T12:19:22;100344.47;;;15.63;38.93
47280;BME280;34064;44.942;0.008;2023-02-13T12:24:40;100325.63;;;15.88;37.65
47280;BME280;34064;44.942;0.008;2023-02-13T12:33:07;100304.91;;;16.15;37.38
47280;BME280;34064;44.942;0.008;2023-02-13T12:38:19;100294.22;;;16.37;34.50
47280;BME280;34064;44.942;0.008;2023-02-13T12:46:44;100294.66;;;16.67;31.91
47280;BME280;34064;44.942;0.008;2023-02-13T12:49:35;100284.53;;;16.71;32.73
47280;BME280;34064;44.942;0.008;2023-02-13T12:55:21;100268.78;;;16.89;31.82
47280;BME280;34064;44.942;0.008;2023-02-13T12:58:17;100264.00;;;16.92;31.57
47280;BME280;34064;44.942;0.008;2023-02-13T13:03:48;100261.47;;;17.13;31.68
47280;BME280;34064;44.942;0.008;2023-02-13T13:14:51;100236.97;;;17.51;29.80
47280;BME280;34064;44.942;0.008;2023-02-13T13:28:23;100221.81;;;17.82;29.63
47280;BME280;34064;44.942;0.008;2023-02-13T13:30:50;100212.75;;;17.83;29.75
47280;BME280;34064;44.942;0.008;2023-02-13T13:33:22;100204.56;;;17.85;29.99
47280;BME280;34064;44.942;0.008;2023-02-13T13:41:34;100193.44;;;18.11;29.78
47280;BME280;34064;44.942;0.008;2023-02-13T13:47:05;100192.38;;;18.23;28.98
47280;BME280;34064;44.942;0.008;2023-02-13T13:49:55;100184.88;;;18.27;28.99
47280;BME280;34064;44.942;0.008;2023-02-13T13:52:31;100186.44;;;18.29;28.54
47280;BME280;34064;44.942;0.008;2023-02-13T13:55:01;100174.31;;;18.35;28.58
47280;BME280;34064;44.942;0.008;2023-02-13T13:57:57;100178.56;;;18.37;28.57
47280;BME280;34064;44.942;0.008;2023-02-13T14:00:27;100175.78;;;18.49;27.35
47280;BME280;34064;44.942;0.008;2023-02-13T14:03:22;100177.91;;;18.45;27.10
47280;BME280;34064;44.942;0.008;2023-02-13T14:06:01;100177.50;;;18.50;27.53
47280;BME280;34064;44.942;0.008;2023-02-13T14:11:40;100170.31;;;18.60;27.83
47280;BME280;34064;44.942;0.008;2023-02-13T14:16:53;100159.34;;;18.83;27.15
47280;BME280;34064;44.942;0.008;2023-02-13T14:19:33;100159.75;;;18.88;27.42
47280;BME280;34064;44.942;0.008;2023-02-13T14:22:30;100156.28;;;18.97;26.70
47280;BME280;34064;44.942;0.008;2023-02-13T14:25:04;100153.00;;;19.04;26.90
47280;BME280;34064;44.942;0.008;2023-02-13T14:27:34;100159.84;;;19.08;26.98
47280;BME280;34064;44.942;0.008;2023-02-13T14:30:21;100149.63;;;19.11;26.97
47280;BME280;34064;44.942;0.008;2023-02-13T14:32:50;100154.47;;;19.27;26.81
47280;BME280;34064;44.942;0.008;2023-02-13T14:35:26;100143.00;;;19.35;26.41
47280;BME280;34064;44.942;0.008;2023-02-13T14:37:58;100151.22;;;19.43;26.64
47280;BME280;34064;44.942;0.008;2023-02-13T14:40:40;100145.66;;;19.45;27.31
47280;BME280;34064;44.942;0.008;2023-02-13T14:43:18;100151.06;;;19.45;27.44
47280;BME280;34064;44.942;0.008;2023-02-13T14:48:38;100132.59;;;19.70;27.63
47280;BME280;34064;44.942;0.008;2023-02-13T14:51:12;100134.13;;;19.82;27.02
47280;BME280;34064;44.942;0.008;2023-02-13T14:53:50;100136.28;;;19.78;27.23
47280;BME280;34064;44.942;0.008;2023-02-13T14:56:20;100140.13;;;19.76;27.28
47280;BME280;34064;44.942;0.008;2023-02-13T14:58:58;100145.06;;;19.80;27.39
47280;BME280;34064;44.942;0.008;2023-02-13T15:01:36;100139.69;;;19.90;27.70
47280;BME280;34064;44.942;0.008;2023-02-13T15:04:16;100145.63;;;19.84;27.59
47280;BME280;34064;44.942;0.008;2023-02-13T15:06:45;100138.28;;;19.86;27.56
47280;BME280;34064;44.942;0.008;2023-02-13T15:09:27;100127.72;;;20.03;27.68
47280;BME280;34064;44.942;0.008;2023-02-13T15:11:57;100120.47;;;20.13;27.63
47280;BME280;34064;44.942;0.008;2023-02-13T15:14:32;100115.97;;;20.32;27.44
47280;BME280;34064;44.942;0.008;2023-02-13T15:19:36;100117.69;;;20.33;27.09
47280;BME280;34064;44.942;0.008;2023-02-13T15:22:20;100119.94;;;20.37;27.09
47280;BME280;34064;44.942;0.008;2023-02-13T15:24:50;100108.78;;;20.50;26.84
47280;BME280;34064;44.942;0.008;2023-02-13T15:27:41;100105.25;;;20.50;26.19
47280;BME280;34064;44.942;0.008;2023-02-13T15:30:20;100115.19;;;20.49;26.24
47280;BME280;34064;44.942;0.008;2023-02-13T15:33:00;100098.50;;;20.64;26.60
47280;BME280;34064;44.942;0.008;2023-02-13T15:35:32;100089.81;;;20.88;26.20
47280;BME280;34064;44.942;0.008;2023-02-13T15:37:59;100072.88;;;21.40;25.94
47280;BME280;34064;44.942;0.008;2023-02-13T15:40:43;100072.88;;;21.40;25.49
47280;BME280;34064;44.942;0.008;2023-02-13T15:43:33;100084.03;;;21.37;25.32
47280;BME280;34064;44.942;0.008;2023-02-13T15:46:23;100090.38;;;21.28;24.65
47280;BME280;34064;44.942;0.008;2023-02-13T15:48:54;100094.78;;;21.11;25.79
47280;BME280;34064;44.942;0.008;2023-02-13T15:51:24;100100.16;;;21.11;25.74
47280;BME280;34064;44.942;0.008;2023-02-13T15:54:03;100093.94;;;21.10;25.21